Cardiff — D5EX4 — position and weather

sailwx.info

Track history (hours):
 
Tides and Currents Weather Stations Pressure Air Temp Water Temp Dewpoint Dewpoint Depression Visibility Wind Speed Wind Dir Waves Ship Positions

Cardiff

Last reported at 2018-Jun-21 22:55 UTC. Time now 2018-Jun-22 20:34 UTC.
Position N 39°55' E 025°54'.

Length 271 m; draft 12 m.

Type: Cargo ship. MMSI: 636016185.

Date/timePositionNaut miles runAvg speedWind from/ knotsBaromVisibWave heightAir tempDewpointWater temp
2018-Jun-21 22:55N 39°55' E 025°54'12 9.3
2018-Jun-21 21:41N 40°01' E 026°07'  
2018-Jun-16 09:43N 37°44' E 024°18'18 9.7
2018-Jun-16 07:51N 37°38' E 023°57'310.1
2018-Jun-16 07:30N 37°38' E 023°52'5 9.6
2018-Jun-16 07:00N 37°38' E 023°46'5 9.3
2018-Jun-16 06:30N 37°41' E 023°42'5 9.7
2018-Jun-16 06:00N 37°46' E 023°39'5 9.5
2018-Jun-16 05:30N 37°50' E 023°37'5 9.7
2018-Jun-16 05:00N 37°55' E 023°37'2 4.9
2018-Jun-16 04:30N 37°57' E 023°35'0 0.1
2018-Jun-16 03:58N 37°57' E 023°35'0 0.0
2018-Jun-16 03:28N 37°57' E 023°35'0 0.0
2018-Jun-16 02:58N 37°57' E 023°35'0 0.0
2018-Jun-16 02:28N 37°57' E 023°35'0 0.0
2018-Jun-16 01:58N 37°57' E 023°35'0 0.0
2018-Jun-16 01:28N 37°57' E 023°35'0 0.0
2018-Jun-16 00:58N 37°57' E 023°35'0 0.0
2018-Jun-16 00:28N 37°57' E 023°35'0 0.0
2018-Jun-15 23:58N 37°57' E 023°35'0 0.0
2018-Jun-15 23:28N 37°57' E 023°35'0 0.0
2018-Jun-15 22:58N 37°57' E 023°35'0 0.0
2018-Jun-15 22:28N 37°57' E 023°35'0 0.0
2018-Jun-15 21:58N 37°57' E 023°35'0 0.0
2018-Jun-15 21:28N 37°57' E 023°35'0 0.0
2018-Jun-15 20:58N 37°57' E 023°35'0 0.0
2018-Jun-15 20:28N 37°57' E 023°35'0 0.0
2018-Jun-15 19:58N 37°57' E 023°35'0 0.1
2018-Jun-15 19:28N 37°57' E 023°35'0 0.1
2018-Jun-15 18:58N 37°57' E 023°35'0 0.0
2018-Jun-15 18:28N 37°57' E 023°35'0 0.0
2018-Jun-15 17:58N 37°57' E 023°35'0 0.0
2018-Jun-15 17:28N 37°57' E 023°35'0 0.0
2018-Jun-15 16:58N 37°57' E 023°35'0 0.0
2018-Jun-15 16:28N 37°57' E 023°35'0 0.0
2018-Jun-15 15:58N 37°57' E 023°35'0 0.0
2018-Jun-15 15:28N 37°57' E 023°35'0 0.0
2018-Jun-15 14:58N 37°57' E 023°35'0 0.0
2018-Jun-15 14:28N 37°57' E 023°35'0 0.0
2018-Jun-15 13:58N 37°57' E 023°35'0 0.0
2018-Jun-15 13:28N 37°57' E 023°35'0 0.0
2018-Jun-15 12:58N 37°57' E 023°35'0 0.0
2018-Jun-15 12:28N 37°57' E 023°35'0 0.0
2018-Jun-15 12:00N 37°57' E 023°35'0 0.8
2018-Jun-15 11:30N 37°57' E 023°35'3 6.7
2018-Jun-15 11:00N 37°54' E 023°36'4 8.1
2018-Jun-15 10:30N 37°50' E 023°39'510.8
2018-Jun-15 10:00N 37°46' E 023°42'816.7
2018-Jun-15 09:30N 37°38' E 023°47'816.6
2018-Jun-15 09:01N 37°30' E 023°47'816.7
2018-Jun-15 08:30N 37°22' E 023°43'816.3
2018-Jun-15 08:01N 37°14' E 023°40'816.4
2018-Jun-15 07:30N 37°06' E 023°37'816.3
2018-Jun-15 07:00N 36°59' E 023°34'2116.6
2018-Jun-15 05:45N 36°39' E 023°24'  
Track history (hours):
 
Tides and Currents Weather Stations Pressure Air Temp Water Temp Dewpoint Dewpoint Depression Visibility Wind Speed Wind Dir Waves Ship Positions

Cardiff

Last reported at 2018-Jun-21 22:55 UTC. Time now 2018-Jun-22 20:34 UTC.
Position N 39°55' E 025°54'.

Length 271 m; draft 12 m.

Type: Cargo ship. MMSI: 636016185.

Date/timePositionNaut miles runAvg speedWind from/ knotsBaromVisibWave heightAir tempDewpointWater temp
2018-Jun-21 22:55N 39°55' E 025°54'12 9.3
2018-Jun-21 21:41N 40°01' E 026°07'  
2018-Jun-16 09:43N 37°44' E 024°18'18 9.7
2018-Jun-16 07:51N 37°38' E 023°57'310.1
2018-Jun-16 07:30N 37°38' E 023°52'5 9.6
2018-Jun-16 07:00N 37°38' E 023°46'5 9.3
2018-Jun-16 06:30N 37°41' E 023°42'5 9.7
2018-Jun-16 06:00N 37°46' E 023°39'5 9.5
2018-Jun-16 05:30N 37°50' E 023°37'5 9.7
2018-Jun-16 05:00N 37°55' E 023°37'2 4.9
2018-Jun-16 04:30N 37°57' E 023°35'0 0.1
2018-Jun-16 03:58N 37°57' E 023°35'0 0.0
2018-Jun-16 03:28N 37°57' E 023°35'0 0.0
2018-Jun-16 02:58N 37°57' E 023°35'0 0.0
2018-Jun-16 02:28N 37°57' E 023°35'0 0.0
2018-Jun-16 01:58N 37°57' E 023°35'0 0.0
2018-Jun-16 01:28N 37°57' E 023°35'0 0.0
2018-Jun-16 00:58N 37°57' E 023°35'0 0.0
2018-Jun-16 00:28N 37°57' E 023°35'0 0.0
2018-Jun-15 23:58N 37°57' E 023°35'0 0.0
2018-Jun-15 23:28N 37°57' E 023°35'0 0.0
2018-Jun-15 22:58N 37°57' E 023°35'0 0.0
2018-Jun-15 22:28N 37°57' E 023°35'0 0.0
2018-Jun-15 21:58N 37°57' E 023°35'0 0.0
2018-Jun-15 21:28N 37°57' E 023°35'0 0.0
2018-Jun-15 20:58N 37°57' E 023°35'0 0.0
2018-Jun-15 20:28N 37°57' E 023°35'0 0.0
2018-Jun-15 19:58N 37°57' E 023°35'0 0.1
2018-Jun-15 19:28N 37°57' E 023°35'0 0.1
2018-Jun-15 18:58N 37°57' E 023°35'0 0.0
2018-Jun-15 18:28N 37°57' E 023°35'0 0.0
2018-Jun-15 17:58N 37°57' E 023°35'0 0.0
2018-Jun-15 17:28N 37°57' E 023°35'0 0.0
2018-Jun-15 16:58N 37°57' E 023°35'0 0.0
2018-Jun-15 16:28N 37°57' E 023°35'0 0.0
2018-Jun-15 15:58N 37°57' E 023°35'0 0.0
2018-Jun-15 15:28N 37°57' E 023°35'0 0.0
2018-Jun-15 14:58N 37°57' E 023°35'0 0.0
2018-Jun-15 14:28N 37°57' E 023°35'0 0.0
2018-Jun-15 13:58N 37°57' E 023°35'0 0.0
2018-Jun-15 13:28N 37°57' E 023°35'0 0.0
2018-Jun-15 12:58N 37°57' E 023°35'0 0.0
2018-Jun-15 12:28N 37°57' E 023°35'0 0.0
2018-Jun-15 12:00N 37°57' E 023°35'0 0.8
2018-Jun-15 11:30N 37°57' E 023°35'3 6.7
2018-Jun-15 11:00N 37°54' E 023°36'4 8.1
2018-Jun-15 10:30N 37°50' E 023°39'510.8
2018-Jun-15 10:00N 37°46' E 023°42'816.7
2018-Jun-15 09:30N 37°38' E 023°47'816.6
2018-Jun-15 09:01N 37°30' E 023°47'816.7
2018-Jun-15 08:30N 37°22' E 023°43'816.3
2018-Jun-15 08:01N 37°14' E 023°40'816.4
2018-Jun-15 07:30N 37°06' E 023°37'816.3
2018-Jun-15 07:00N 36°59' E 023°34'2116.6
2018-Jun-15 05:45N 36°39' E 023°24'  

Dump ship's entire track history